createdAt,value
2022-07-29T00:00:47.365Z,1.43
2022-07-29T00:02:50.929Z,1.50
2022-07-29T00:04:55.884Z,1.27
2022-07-29T00:06:59.419Z,1.27
2022-07-29T00:09:02.927Z,1.37
2022-07-29T00:11:06.476Z,1.30
2022-07-29T00:13:10.021Z,1.30
2022-07-29T00:15:13.685Z,1.20
2022-07-29T00:17:19.167Z,1.03
2022-07-29T00:19:22.695Z,1.03
2022-07-29T00:21:28.190Z,1.47
2022-07-29T00:23:33.794Z,1.20
2022-07-29T00:25:40.404Z,1.43
2022-07-29T00:27:44.115Z,1.20
2022-07-29T00:29:47.696Z,1.57
2022-07-29T00:31:51.351Z,2.33
2022-07-29T00:33:55.067Z,1.87
2022-07-29T00:35:57.587Z,1.60
2022-07-29T00:38:02.559Z,1.27
2022-07-29T00:40:07.055Z,1.40
2022-07-29T00:42:10.806Z,1.70
2022-07-29T00:44:14.768Z,1.30
2022-07-29T00:46:18.634Z,1.33
2022-07-29T00:48:22.242Z,1.47
2022-07-29T00:50:29.016Z,1.43
2022-07-29T00:52:32.816Z,1.43
2022-07-29T00:54:39.161Z,1.40
2022-07-29T00:56:47.528Z,1.20
2022-07-29T00:58:53.566Z,1.37
2022-07-29T01:00:57.171Z,1.97
2022-07-29T01:03:01.508Z,2.90
2022-07-29T01:05:07.263Z,1.60
2022-07-29T01:07:12.120Z,1.77
2022-07-29T01:09:16.169Z,1.30
2022-07-29T01:11:41.707Z,1.70
2022-07-29T01:13:45.771Z,1.40
2022-07-29T01:15:55.988Z,1.63
2022-07-29T01:18:05.910Z,1.20
2022-07-29T01:20:14.929Z,1.10
2022-07-29T01:22:29.783Z,1.37
2022-07-29T01:24:55.053Z,2.30
2022-07-29T01:27:05.976Z,1.80
2022-07-29T01:29:25.627Z,1.53
2022-07-29T01:31:49.144Z,2.60
2022-07-29T01:34:05.921Z,1.37
2022-07-29T01:36:14.052Z,1.30
2022-07-29T01:38:23.133Z,1.57
2022-07-29T01:40:30.717Z,1.20
2022-07-29T01:42:37.928Z,1.63
2022-07-29T01:44:50.488Z,1.40
2022-07-29T01:46:58.158Z,1.30
2022-07-29T01:49:10.733Z,1.90
2022-07-29T01:51:18.936Z,1.47
2022-07-29T01:53:37.666Z,1.37
2022-07-29T01:55:45.344Z,1.20
2022-07-29T01:57:50.759Z,1.40
2022-07-29T01:59:58.051Z,1.30
2022-07-29T02:02:03.512Z,1.50
2022-07-29T02:04:10.783Z,1.30
2022-07-29T02:06:17.652Z,1.47
2022-07-29T02:08:22.079Z,1.60
2022-07-29T02:10:29.737Z,1.60
2022-07-29T02:12:36.535Z,1.77
2022-07-29T02:14:45.460Z,1.33
2022-07-29T02:16:53.936Z,1.27
2022-07-29T02:19:00.022Z,2.03
2022-07-29T02:21:05.168Z,1.40
2022-07-29T02:23:11.425Z,1.57
2022-07-29T02:25:17.526Z,1.40
2022-07-29T02:27:22.607Z,2.10
2022-07-29T02:29:29.121Z,1.87
2022-07-29T02:31:35.703Z,1.63
2022-07-29T02:33:42.617Z,1.40
2022-07-29T02:35:48.223Z,2.00
2022-07-29T02:38:07.159Z,1.57
2022-07-29T02:40:13.417Z,1.57
2022-07-29T02:42:19.453Z,1.80
2022-07-29T02:44:28.106Z,1.70
2022-07-29T02:46:37.802Z,1.53
2022-07-29T02:48:50.858Z,1.77
2022-07-29T02:51:03.782Z,1.73
2022-07-29T02:53:11.147Z,1.70
2022-07-29T02:55:21.330Z,1.60
2022-07-29T02:57:32.363Z,1.37
2022-07-29T02:59:39.366Z,1.43
2022-07-29T03:01:45.913Z,1.40
2022-07-29T03:03:53.021Z,2.13
2022-07-29T03:05:58.808Z,1.77
2022-07-29T03:08:05.378Z,1.47
2022-07-29T03:10:11.097Z,1.30
2022-07-29T03:12:18.469Z,2.03
2022-07-29T03:14:23.967Z,1.60
2022-07-29T03:16:28.025Z,2.10
2022-07-29T03:18:32.986Z,1.60
2022-07-29T03:20:39.628Z,1.30
2022-07-29T03:22:44.818Z,1.77
2022-07-29T03:24:48.444Z,1.70
2022-07-29T03:26:52.187Z,1.93
2022-07-29T03:28:56.943Z,2.07
2022-07-29T03:31:00.478Z,1.83
2022-07-29T03:33:05.230Z,1.50
2022-07-29T03:35:17.534Z,2.10
2022-07-29T03:37:22.411Z,1.90
2022-07-29T03:39:29.678Z,2.03
2022-07-29T03:41:34.750Z,2.27
2022-07-29T03:43:49.716Z,1.97
2022-07-29T03:45:56.442Z,2.03
2022-07-29T03:48:04.218Z,2.10
2022-07-29T03:50:10.907Z,2.20
2022-07-29T03:52:14.677Z,2.50
2022-07-29T03:54:21.159Z,2.50
2022-07-29T03:56:26.622Z,2.60
2022-07-29T03:58:32.558Z,2.40
2022-07-29T04:00:37.127Z,3.37
2022-07-29T04:02:41.978Z,2.67
2022-07-29T04:04:45.654Z,2.60
2022-07-29T04:06:49.392Z,2.43
2022-07-29T04:08:52.911Z,2.67
2022-07-29T04:10:57.869Z,2.43
2022-07-29T04:13:01.864Z,1.97
2022-07-29T04:15:08.907Z,2.43
2022-07-29T04:17:13.320Z,2.23
2022-07-29T04:19:16.899Z,1.77
2022-07-29T04:21:20.415Z,2.27
2022-07-29T04:23:23.852Z,1.97
2022-07-29T04:25:27.357Z,2.10
2022-07-29T04:27:32.333Z,1.97
2022-07-29T04:29:35.808Z,1.97
2022-07-29T04:31:39.469Z,1.90
2022-07-29T04:33:43.051Z,2.10
2022-07-29T04:35:49.914Z,1.67
2022-07-29T04:37:56.225Z,1.83
2022-07-29T04:39:59.726Z,1.83
2022-07-29T04:42:03.295Z,1.67
2022-07-29T04:44:08.800Z,1.73
2022-07-29T04:46:12.452Z,1.40
2022-07-29T04:48:16.119Z,1.50
2022-07-29T04:50:19.668Z,1.73
2022-07-29T04:52:23.207Z,1.57
2022-07-29T04:54:27.254Z,1.63
2022-07-29T04:56:31.054Z,1.90
2022-07-29T04:58:36.760Z,1.70
2022-07-29T05:00:42.100Z,2.03
2022-07-29T05:02:45.716Z,1.40
2022-07-29T05:04:49.536Z,2.93
2022-07-29T05:06:52.989Z,1.87
2022-07-29T05:08:56.483Z,1.80
2022-07-29T05:11:11.785Z,1.87
2022-07-29T05:13:16.094Z,1.90
2022-07-29T05:15:19.815Z,1.93
2022-07-29T05:17:24.713Z,1.97
2022-07-29T05:19:28.252Z,2.33
2022-07-29T05:21:31.720Z,1.73
2022-07-29T05:23:35.207Z,2.40
2022-07-29T05:25:43.652Z,2.97
2022-07-29T05:27:48.297Z,1.30
2022-07-29T05:29:54.706Z,1.97
2022-07-29T05:31:58.174Z,1.70
2022-07-29T05:34:03.552Z,1.53
2022-07-29T05:36:08.026Z,1.90
2022-07-29T05:38:11.899Z,1.60
2022-07-29T05:40:15.610Z,1.67
2022-07-29T05:42:19.239Z,1.27
2022-07-29T05:44:25.420Z,1.83
2022-07-29T05:46:29.150Z,1.47
2022-07-29T05:48:33.269Z,1.57
2022-07-29T05:50:38.147Z,1.70
2022-07-29T05:52:51.573Z,1.37
2022-07-29T05:54:55.513Z,1.83
2022-07-29T05:56:59.108Z,1.67
2022-07-29T05:59:02.666Z,1.80
2022-07-29T06:01:06.443Z,2.00
2022-07-29T06:03:10.031Z,1.50
2022-07-29T06:05:17.119Z,2.13
2022-07-29T06:07:22.260Z,1.40
2022-07-29T06:09:26.921Z,1.70
2022-07-29T06:11:30.487Z,1.70
2022-07-29T06:13:34.157Z,2.00
2022-07-29T06:15:37.690Z,2.23
2022-07-29T06:18:00.222Z,2.43
2022-07-29T06:20:07.450Z,1.70
2022-07-29T06:22:11.181Z,2.00
2022-07-29T06:24:17.539Z,1.20
2022-07-29T06:26:30.773Z,2.20
2022-07-29T06:28:35.550Z,1.70
2022-07-29T06:30:39.308Z,1.40
2022-07-29T06:32:43.889Z,1.30
2022-07-29T06:34:48.939Z,2.03
2022-07-29T06:36:53.778Z,1.50
2022-07-29T06:38:57.748Z,1.50
2022-07-29T06:41:02.880Z,1.50
2022-07-29T06:43:07.126Z,1.93
2022-07-29T06:45:11.641Z,1.53
2022-07-29T06:47:15.185Z,1.53
2022-07-29T06:49:18.824Z,1.50
2022-07-29T06:51:23.819Z,1.70
2022-07-29T06:53:29.005Z,1.80
2022-07-29T06:55:32.825Z,1.47
2022-07-29T06:57:37.949Z,2.40
2022-07-29T06:59:41.497Z,1.47
2022-07-29T07:01:45.501Z,1.37
2022-07-29T07:03:49.082Z,1.27
2022-07-29T07:05:54.387Z,1.57
2022-07-29T07:07:57.895Z,1.43
2022-07-29T07:10:01.361Z,1.70
2022-07-29T07:12:05.374Z,4.90
2022-07-29T07:14:10.329Z,2.03
2022-07-29T07:16:13.916Z,2.20
2022-07-29T07:18:17.898Z,1.77
2022-07-29T07:20:22.052Z,1.83
2022-07-29T07:22:28.940Z,1.93
2022-07-29T07:24:32.453Z,1.80
2022-07-29T07:26:35.963Z,2.00
2022-07-29T07:28:39.506Z,2.20
2022-07-29T07:30:44.541Z,1.80
2022-07-29T07:32:48.100Z,1.70
2022-07-29T07:34:51.622Z,2.20
2022-07-29T07:36:55.167Z,2.43
2022-07-29T07:38:58.744Z,4.10
2022-07-29T07:41:02.735Z,3.17
2022-07-29T07:43:06.374Z,2.90
2022-07-29T07:45:15.857Z,2.30
2022-07-29T07:47:24.476Z,2.07
2022-07-29T07:49:31.657Z,2.13
2022-07-29T07:51:35.196Z,2.73
2022-07-29T07:53:38.836Z,2.13
2022-07-29T07:56:09.364Z,2.30
2022-07-29T07:58:08.328Z,2.57
2022-07-29T08:00:12.794Z,2.20
2022-07-29T08:02:16.786Z,2.40
2022-07-29T08:04:27.103Z,2.70
2022-07-29T08:06:31.522Z,2.37
2022-07-29T08:08:35.056Z,1.73
2022-07-29T08:10:57.816Z,1.80
2022-07-29T08:13:04.267Z,1.70
2022-07-29T08:15:09.460Z,2.50
2022-07-29T08:17:13.018Z,2.23
2022-07-29T08:19:16.575Z,2.67
2022-07-29T08:21:21.454Z,3.43
2022-07-29T08:23:25.408Z,2.27
2022-07-29T08:25:29.265Z,2.70
2022-07-29T08:27:43.505Z,2.60
2022-07-29T08:29:47.691Z,1.90
2022-07-29T08:31:51.533Z,2.07
2022-07-29T08:33:57.120Z,1.63
2022-07-29T08:36:01.007Z,1.53
2022-07-29T08:38:05.905Z,2.07
2022-07-29T08:40:10.145Z,1.80
2022-07-29T08:42:14.326Z,2.30
2022-07-29T08:44:18.155Z,2.73
2022-07-29T08:46:34.043Z,2.40
2022-07-29T08:48:38.667Z,2.93
2022-07-29T08:50:43.193Z,2.50
2022-07-29T08:52:55.407Z,2.53
2022-07-29T08:55:03.360Z,2.00
2022-07-29T08:57:07.329Z,2.00
2022-07-29T08:59:14.417Z,2.73
2022-07-29T09:01:23.351Z,2.63
2022-07-29T09:03:42.258Z,3.60
2022-07-29T09:05:48.303Z,2.63
2022-07-29T09:07:52.335Z,3.23
2022-07-29T09:09:56.099Z,2.63
2022-07-29T09:12:01.259Z,3.20
2022-07-29T09:14:04.942Z,3.83
2022-07-29T09:16:09.695Z,2.40
2022-07-29T09:18:20.670Z,2.37
2022-07-29T09:20:48.489Z,3.13
2022-07-29T09:22:54.090Z,2.53
2022-07-29T09:24:57.693Z,3.00
2022-07-29T09:27:02.987Z,2.77
2022-07-29T09:29:12.966Z,2.63
2022-07-29T09:31:16.612Z,3.20
2022-07-29T09:33:20.973Z,2.53
2022-07-29T09:35:26.861Z,2.70
2022-07-29T09:37:30.799Z,3.80
2022-07-29T09:39:35.717Z,2.97
2022-07-29T09:41:50.302Z,3.10
2022-07-29T09:43:59.465Z,3.43
2022-07-29T09:46:12.505Z,3.30
2022-07-29T09:48:18.278Z,2.47
2022-07-29T09:50:24.933Z,3.73
2022-07-29T09:52:29.687Z,3.70
2022-07-29T09:54:37.652Z,3.33
2022-07-29T09:56:44.412Z,3.87
2022-07-29T09:58:47.937Z,4.07
2022-07-29T10:00:54.674Z,3.00
2022-07-29T10:03:03.764Z,3.60
2022-07-29T10:05:17.810Z,3.03
2022-07-29T10:07:21.394Z,3.60
2022-07-29T10:09:25.493Z,3.33
2022-07-29T10:11:48.428Z,4.03
2022-07-29T10:13:52.632Z,3.70
2022-07-29T10:15:57.620Z,3.27
2022-07-29T10:18:02.117Z,3.60
2022-07-29T10:20:06.917Z,4.73
2022-07-29T10:22:31.090Z,4.63
2022-07-29T10:24:40.796Z,4.00
2022-07-29T10:26:45.660Z,3.10
2022-07-29T10:28:49.216Z,3.97
2022-07-29T10:30:54.920Z,3.87
2022-07-29T10:33:30.837Z,4.00
2022-07-29T10:35:47.033Z,3.50
2022-07-29T10:38:31.144Z,2.90
2022-07-29T10:41:00.382Z,3.93
2022-07-29T10:43:18.513Z,3.27
2022-07-29T10:45:24.915Z,4.00
2022-07-29T10:47:29.238Z,4.60
2022-07-29T10:49:34.359Z,3.53
2022-07-29T10:52:07.244Z,4.03
2022-07-29T10:54:10.994Z,3.23
2022-07-29T10:56:26.964Z,3.90
2022-07-29T10:58:30.548Z,3.60
2022-07-29T11:00:34.878Z,2.73
2022-07-29T11:02:53.028Z,3.70
2022-07-29T11:05:06.987Z,4.27
2022-07-29T11:07:13.183Z,2.70
2022-07-29T11:09:34.970Z,3.67
2022-07-29T11:11:44.106Z,3.30
2022-07-29T11:13:56.080Z,4.00
2022-07-29T11:16:00.712Z,3.30
2022-07-29T11:18:15.120Z,2.73
2022-07-29T11:20:34.917Z,3.30
2022-07-29T11:22:45.860Z,3.40
2022-07-29T11:25:15.020Z,3.13
2022-07-29T11:27:23.098Z,2.60
2022-07-29T11:29:27.457Z,2.80
2022-07-29T11:31:37.706Z,2.93
2022-07-29T11:33:56.049Z,3.20
2022-07-29T11:36:16.902Z,2.53
2022-07-29T11:38:28.770Z,3.37
2022-07-29T11:40:32.686Z,3.30
2022-07-29T11:42:47.025Z,3.40
2022-07-29T11:44:57.857Z,4.07
2022-07-29T11:47:02.334Z,2.80
2022-07-29T11:51:32.964Z,2.40
2022-07-29T11:53:37.771Z,3.00
2022-07-29T11:55:50.888Z,2.60
2022-07-29T11:58:03.760Z,3.40
2022-07-29T12:00:12.349Z,2.80
2022-07-29T12:02:37.277Z,2.93
2022-07-29T12:04:51.198Z,2.40
2022-07-29T12:07:00.571Z,3.00
2022-07-29T12:09:11.286Z,2.60
2022-07-29T12:11:21.317Z,2.73
2022-07-29T12:13:37.030Z,2.30
2022-07-29T12:15:47.194Z,2.47
2022-07-29T12:17:50.997Z,2.80
2022-07-29T12:19:55.364Z,2.20
2022-07-29T12:22:01.118Z,2.93
2022-07-29T12:24:09.516Z,3.10
2022-07-29T12:26:25.559Z,2.70
2022-07-29T12:28:29.517Z,2.30
2022-07-29T12:30:41.604Z,2.70
2022-07-29T12:32:49.703Z,2.13
2022-07-29T12:34:53.572Z,1.93
2022-07-29T12:36:57.622Z,2.50
2022-07-29T12:39:02.759Z,2.53
2022-07-29T12:41:06.476Z,2.50
2022-07-29T12:43:11.396Z,2.40
2022-07-29T12:45:14.849Z,2.47
2022-07-29T12:47:20.801Z,2.33
2022-07-29T12:49:24.790Z,2.93
2022-07-29T12:51:32.942Z,2.63
2022-07-29T12:53:37.431Z,2.30
2022-07-29T12:55:44.275Z,2.57
2022-07-29T12:57:48.948Z,2.27
2022-07-29T13:00:17.573Z,2.70
2022-07-29T13:02:24.699Z,2.50
2022-07-29T13:04:29.428Z,2.30
2022-07-29T13:06:39.050Z,2.30
2022-07-29T13:09:01.238Z,2.50
2022-07-29T13:11:06.693Z,2.30
2022-07-29T13:13:11.966Z,2.83
2022-07-29T13:15:17.137Z,2.10
2022-07-29T13:17:23.853Z,2.47
2022-07-29T13:19:36.575Z,2.70
2022-07-29T13:21:41.051Z,2.23
2022-07-29T13:23:44.544Z,2.60
2022-07-29T13:25:48.138Z,3.70
2022-07-29T13:27:55.287Z,3.30
2022-07-29T13:30:00.853Z,3.73
2022-07-29T13:32:04.899Z,3.73
2022-07-29T13:34:08.537Z,3.77
2022-07-29T13:36:12.116Z,4.00
2022-07-29T13:38:15.822Z,3.53
2022-07-29T13:40:19.330Z,3.33
2022-07-29T13:42:22.859Z,3.50
2022-07-29T13:44:27.907Z,3.27
2022-07-29T13:46:31.459Z,3.60
2022-07-29T13:48:35.163Z,2.93
2022-07-29T13:50:38.680Z,3.23
2022-07-29T13:52:42.262Z,4.10
2022-07-29T13:54:46.057Z,3.47
2022-07-29T13:56:49.797Z,4.20
2022-07-29T13:58:53.251Z,3.70
2022-07-29T14:00:58.240Z,4.33
2022-07-29T14:03:01.832Z,3.93
2022-07-29T14:05:08.545Z,8.00
2022-07-29T14:07:16.405Z,3.43
2022-07-29T14:09:20.294Z,4.07
2022-07-29T14:11:23.774Z,3.33
2022-07-29T14:13:27.398Z,3.93
2022-07-29T14:15:30.827Z,3.70
2022-07-29T14:17:35.841Z,3.07
2022-07-29T14:19:39.903Z,3.67
2022-07-29T14:21:43.435Z,2.30
2022-07-29T14:23:49.177Z,2.57
2022-07-29T14:25:54.367Z,3.27
2022-07-29T14:27:58.527Z,3.20
2022-07-29T14:30:02.160Z,3.40
2022-07-29T14:32:06.599Z,3.43
2022-07-29T14:34:12.147Z,2.90
2022-07-29T14:36:15.772Z,3.10
2022-07-29T14:38:19.935Z,2.77
2022-07-29T14:40:23.584Z,3.10
2022-07-29T14:42:27.104Z,3.37
2022-07-29T14:44:32.270Z,4.00
2022-07-29T14:46:35.981Z,2.90
2022-07-29T14:48:39.638Z,3.43
2022-07-29T14:50:46.061Z,4.20
2022-07-29T14:52:49.566Z,3.57
2022-07-29T14:54:53.237Z,3.13
2022-07-29T14:56:58.339Z,3.10
2022-07-29T14:59:02.270Z,3.77
2022-07-29T15:01:06.919Z,2.83
2022-07-29T15:03:11.554Z,3.23
2022-07-29T15:05:15.309Z,3.10
2022-07-29T15:07:20.154Z,3.60
2022-07-29T15:09:23.717Z,3.47
2022-07-29T15:11:27.343Z,3.80
2022-07-29T15:13:30.840Z,3.07
2022-07-29T15:15:34.458Z,3.63
2022-07-29T15:17:38.167Z,3.20
2022-07-29T15:19:44.979Z,3.57
2022-07-29T15:21:49.220Z,3.50
2022-07-29T15:23:54.238Z,3.47
2022-07-29T15:25:57.819Z,3.07
2022-07-29T15:28:03.837Z,3.40
2022-07-29T15:30:08.407Z,2.67
2022-07-29T15:32:12.244Z,2.80
2022-07-29T15:34:15.945Z,2.67
2022-07-29T15:36:50.122Z,3.13
2022-07-29T15:38:43.008Z,3.27
2022-07-29T15:40:47.909Z,3.77
2022-07-29T15:42:51.493Z,2.70
2022-07-29T15:44:56.233Z,3.60
2022-07-29T15:47:05.771Z,4.20
2022-07-29T15:49:09.562Z,3.53
2022-07-29T15:51:13.194Z,3.10
2022-07-29T15:53:16.776Z,4.17
2022-07-29T15:55:21.180Z,3.70
2022-07-29T15:57:26.595Z,3.17
2022-07-29T15:59:30.654Z,3.20
2022-07-29T16:01:34.281Z,2.77
2022-07-29T16:03:37.892Z,3.37
2022-07-29T16:05:42.068Z,3.37
2022-07-29T16:07:45.583Z,3.37
2022-07-29T16:09:53.049Z,3.17
2022-07-29T16:11:57.071Z,3.00
2022-07-29T16:14:02.310Z,3.03
2022-07-29T16:16:06.387Z,3.80
2022-07-29T16:18:10.207Z,3.87
2022-07-29T16:20:14.081Z,5.00
2022-07-29T16:22:17.693Z,4.00
2022-07-29T16:24:21.171Z,3.30
2022-07-29T16:26:24.714Z,2.93
2022-07-29T16:28:28.336Z,3.00
2022-07-29T16:30:33.331Z,3.00
2022-07-29T16:32:36.853Z,3.33
2022-07-29T16:34:41.519Z,2.73
2022-07-29T16:36:47.874Z,2.97
2022-07-29T16:38:51.839Z,3.80
2022-07-29T16:40:55.315Z,3.00
2022-07-29T16:42:58.914Z,3.20
2022-07-29T16:45:02.852Z,2.80
2022-07-29T16:47:08.483Z,3.30
2022-07-29T16:49:15.045Z,3.50
2022-07-29T16:51:23.211Z,2.83
2022-07-29T16:53:30.008Z,2.73
2022-07-29T16:55:33.759Z,2.57
2022-07-29T16:57:37.437Z,2.80
2022-07-29T16:59:43.366Z,3.20
2022-07-29T17:01:47.494Z,3.07
2022-07-29T17:04:06.261Z,4.97
2022-07-29T17:06:09.864Z,4.33
2022-07-29T17:08:13.636Z,4.33
2022-07-29T17:10:17.388Z,3.57
2022-07-29T17:12:20.838Z,4.60
2022-07-29T17:14:25.878Z,3.03
2022-07-29T17:16:30.202Z,3.20
2022-07-29T17:18:33.673Z,3.50
2022-07-29T17:20:38.575Z,3.10
2022-07-29T17:22:42.963Z,3.20
2022-07-29T17:24:46.572Z,3.47
2022-07-29T17:26:50.787Z,3.60
2022-07-29T17:28:54.281Z,3.23
2022-07-29T17:30:58.056Z,3.23
2022-07-29T17:33:02.015Z,3.40
2022-07-29T17:35:27.689Z,3.10
2022-07-29T17:37:31.651Z,3.00
2022-07-29T17:39:36.092Z,2.63
2022-07-29T17:41:40.880Z,3.37
2022-07-29T17:43:44.404Z,3.17
2022-07-29T17:45:49.406Z,2.60
2022-07-29T17:47:54.111Z,2.60
2022-07-29T17:49:57.639Z,2.77
2022-07-29T17:52:01.353Z,3.00
2022-07-29T17:54:06.470Z,3.00
2022-07-29T17:56:10.117Z,2.60
2022-07-29T17:58:14.135Z,3.20
2022-07-29T18:00:17.976Z,3.27
2022-07-29T18:02:21.633Z,3.00
2022-07-29T18:04:25.439Z,3.03
2022-07-29T18:06:28.976Z,2.57
2022-07-29T18:08:32.487Z,2.97
2022-07-29T18:10:37.904Z,2.97
2022-07-29T18:12:41.572Z,2.80
2022-07-29T18:14:45.027Z,2.97
2022-07-29T18:16:48.688Z,2.90
2022-07-29T18:18:52.270Z,3.40
2022-07-29T18:20:55.881Z,3.17
2022-07-29T18:22:59.481Z,2.80
2022-07-29T18:25:03.402Z,2.57
2022-07-29T18:27:08.403Z,2.70
2022-07-29T18:29:12.344Z,2.87
2022-07-29T18:31:15.983Z,2.43
2022-07-29T18:33:22.365Z,2.53
2022-07-29T18:35:26.373Z,2.70
2022-07-29T18:38:02.311Z,2.83
2022-07-29T18:39:55.137Z,4.00
2022-07-29T18:42:01.594Z,2.70
2022-07-29T18:44:06.795Z,2.80
2022-07-29T18:46:10.819Z,2.70
2022-07-29T18:48:16.899Z,3.37
2022-07-29T18:50:20.611Z,2.73
2022-07-29T18:52:24.127Z,2.80
2022-07-29T18:54:30.656Z,2.77
2022-07-29T18:56:34.204Z,3.10
2022-07-29T18:58:38.868Z,6.80
2022-07-29T19:00:43.853Z,5.40
2022-07-29T19:02:47.605Z,4.20
2022-07-29T19:04:51.503Z,4.77
2022-07-29T19:06:55.071Z,4.03
2022-07-29T19:08:58.596Z,3.03
2022-07-29T19:11:02.195Z,2.50
2022-07-29T19:13:06.164Z,2.80
2022-07-29T19:15:11.388Z,2.50
2022-07-29T19:17:16.269Z,2.70
2022-07-29T19:19:19.765Z,2.70
2022-07-29T19:21:24.046Z,2.63
2022-07-29T19:23:27.636Z,2.60
2022-07-29T19:25:31.285Z,2.20
2022-07-29T19:27:39.234Z,2.43
2022-07-29T19:29:42.779Z,3.70
2022-07-29T19:31:46.378Z,2.83
2022-07-29T19:33:51.371Z,2.70
2022-07-29T19:35:55.207Z,2.93
2022-07-29T19:38:01.005Z,2.60
2022-07-29T19:40:05.232Z,3.27
2022-07-29T19:42:10.158Z,2.43
2022-07-29T19:44:13.832Z,2.90
2022-07-29T19:46:17.366Z,2.43
2022-07-29T19:48:20.928Z,2.60
2022-07-29T19:50:26.099Z,2.70
2022-07-29T19:52:29.862Z,2.27
2022-07-29T19:54:33.321Z,2.40
2022-07-29T19:56:39.961Z,2.60
2022-07-29T19:58:45.731Z,2.60
2022-07-29T20:00:49.645Z,2.47
2022-07-29T20:02:53.369Z,2.20
2022-07-29T20:04:56.921Z,3.00
2022-07-29T20:07:02.194Z,2.43
2022-07-29T20:09:06.529Z,2.80
2022-07-29T20:11:10.212Z,2.90
2022-07-29T20:13:13.913Z,2.60
2022-07-29T20:15:17.536Z,2.67
2022-07-29T20:17:22.317Z,2.97
2022-07-29T20:19:25.921Z,2.90
2022-07-29T20:21:29.565Z,2.63
2022-07-29T20:23:34.488Z,2.73
2022-07-29T20:25:38.341Z,3.70
2022-07-29T20:27:42.766Z,3.60
2022-07-29T20:29:46.308Z,2.77
2022-07-29T20:31:53.464Z,3.10
2022-07-29T20:34:00.378Z,3.20
2022-07-29T20:36:03.998Z,2.77
2022-07-29T20:38:07.537Z,3.80
2022-07-29T20:40:13.185Z,2.83
2022-07-29T20:42:16.828Z,2.93
2022-07-29T20:44:20.379Z,3.57
2022-07-29T20:46:23.950Z,3.40
2022-07-29T20:48:27.713Z,3.50
2022-07-29T20:50:31.320Z,3.70
2022-07-29T20:52:34.881Z,3.10
2022-07-29T20:54:38.431Z,3.17
2022-07-29T20:56:43.895Z,3.30
2022-07-29T20:58:47.403Z,3.80
2022-07-29T21:00:51.545Z,3.80
2022-07-29T21:02:55.370Z,4.30
2022-07-29T21:04:58.993Z,3.97
2022-07-29T21:07:02.911Z,4.03
2022-07-29T21:09:06.648Z,4.40
2022-07-29T21:11:10.856Z,4.00
2022-07-29T21:13:16.593Z,3.67
2022-07-29T21:15:21.525Z,3.47
2022-07-29T21:17:25.217Z,3.77
2022-07-29T21:19:28.808Z,4.57
2022-07-29T21:21:32.314Z,5.83
2022-07-29T21:23:36.581Z,5.03
2022-07-29T21:25:40.033Z,5.20
2022-07-29T21:28:01.046Z,7.20
2022-07-29T21:30:07.298Z,6.40
2022-07-29T21:32:11.029Z,7.47
2022-07-29T21:34:15.496Z,6.30
2022-07-29T21:36:47.288Z,6.63
2022-07-29T21:38:42.468Z,6.70
2022-07-29T21:40:47.319Z,6.17
2022-07-29T21:42:50.857Z,4.93
2022-07-29T21:44:54.397Z,5.20
2022-07-29T21:46:59.574Z,4.10
2022-07-29T21:49:03.118Z,7.00
2022-07-29T21:51:06.787Z,9.60
2022-07-29T21:53:11.080Z,6.33
2022-07-29T21:55:18.580Z,4.90
2022-07-29T21:57:22.968Z,4.83
2022-07-29T21:59:26.711Z,4.77
2022-07-29T22:01:39.078Z,4.97
2022-07-29T22:03:44.519Z,4.43
2022-07-29T22:05:48.044Z,3.50
2022-07-29T22:07:56.563Z,3.47
2022-07-29T22:10:00.613Z,3.93
2022-07-29T22:12:04.270Z,3.90
2022-07-29T22:14:08.127Z,4.20
2022-07-29T22:16:14.836Z,4.40
2022-07-29T22:18:20.399Z,4.43
2022-07-29T22:20:26.325Z,5.17
2022-07-29T22:22:30.023Z,3.93
2022-07-29T22:24:33.629Z,4.70
2022-07-29T22:26:37.384Z,4.23
2022-07-29T22:28:40.981Z,4.23
2022-07-29T22:30:44.513Z,3.67
2022-07-29T22:32:49.619Z,3.70
2022-07-29T22:34:53.107Z,3.40
2022-07-29T22:36:58.499Z,3.83
2022-07-29T22:39:02.156Z,3.63
2022-07-29T22:41:05.775Z,4.10
2022-07-29T22:43:09.423Z,3.20
2022-07-29T22:45:13.910Z,3.40
2022-07-29T22:47:17.623Z,4.10
2022-07-29T22:49:41.217Z,3.60
2022-07-29T22:51:44.766Z,3.70
2022-07-29T22:53:49.674Z,3.60
2022-07-29T22:55:53.134Z,3.73
2022-07-29T22:57:56.701Z,3.93
2022-07-29T23:00:01.656Z,3.37
2022-07-29T23:02:05.183Z,3.43
2022-07-29T23:04:08.813Z,3.10
2022-07-29T23:06:12.375Z,4.10
2022-07-29T23:08:16.128Z,3.67
2022-07-29T23:10:22.502Z,3.50
2022-07-29T23:12:25.949Z,3.37
2022-07-29T23:14:29.428Z,3.83
2022-07-29T23:16:33.252Z,3.67
2022-07-29T23:18:38.567Z,3.77
2022-07-29T23:20:43.118Z,3.60
2022-07-29T23:22:46.743Z,3.90
2022-07-29T23:24:50.231Z,4.50
2022-07-29T23:26:55.183Z,4.73
2022-07-29T23:28:58.827Z,4.93
2022-07-29T23:31:02.413Z,4.93
2022-07-29T23:33:06.062Z,4.70
2022-07-29T23:35:10.572Z,4.40
2022-07-29T23:37:14.691Z,3.57
2022-07-29T23:39:18.179Z,4.13
2022-07-29T23:41:21.692Z,4.97
2022-07-29T23:43:26.743Z,4.50
2022-07-29T23:45:40.675Z,3.60
2022-07-29T23:47:48.802Z,3.60
2022-07-29T23:49:52.288Z,3.80
2022-07-29T23:51:55.796Z,4.23
2022-07-29T23:53:59.928Z,5.23
2022-07-29T23:56:03.404Z,4.77
2022-07-29T23:58:06.889Z,5.17
